Time;durP1;ratioP1;P1;durP2;ratioP2;P2;SDS_P1;SDS_P2;PMS_P1;PMS_P2;Temp;Humidity;BMP_temperature;BMP_pressure;BME280_temperature;BME280_humidity;BME280_pressure;Samples;Min_cycle;Max_cycle;Signal;HPM_P1;HPM_P2
2023/04/12 00:00:47;;;;;;;8.60;1.98;;;19.40;99.90;;;;;;4950032;28;20197;-79
2023/04/12 00:03:19;;;;;;;6.97;1.80;;;19.50;99.90;;;;;;4954037;29;20240;-80
2023/04/12 00:05:53;;;;;;;6.68;1.60;;;19.60;99.90;;;;;;4951789;29;20275;-79
2023/04/12 00:08:31;;;;;;;6.20;1.83;;;19.70;99.90;;;;;;4950868;29;20200;-80
2023/04/12 00:11:03;;;;;;;7.28;1.60;;;19.80;99.90;;;;;;4953437;28;20213;-80
2023/04/12 00:13:34;;;;;;;4.60;1.40;;;19.90;99.90;;;;;;4949230;29;20224;-79
2023/04/12 00:16:07;;;;;;;6.78;1.70;;;20.10;99.90;;;;;;4953215;29;20205;-78
2023/04/12 00:18:38;;;;;;;7.07;1.85;;;20.20;99.90;;;;;;4952427;28;20569;-80
2023/04/12 00:21:10;;;;;;;4.15;1.63;;;20.30;99.90;;;;;;4952110;28;20197;-79
2023/04/12 00:23:41;;;;;;;5.32;1.40;;;20.50;99.90;;;;;;4952853;29;20205;-79
2023/04/12 00:26:12;;;;;;;9.18;1.88;;;20.60;99.90;;;;;;4952366;28;20201;-79
2023/04/12 00:28:44;;;;;;;4.88;1.60;;;20.70;99.90;;;;;;4954277;28;20201;-79
2023/04/12 00:31:17;;;;;;;4.95;1.80;;;20.80;99.90;;;;;;4952458;28;20201;-79
2023/04/12 00:33:48;;;;;;;5.50;1.50;;;20.70;99.90;;;;;;4951680;28;20209;-78
2023/04/12 00:36:20;;;;;;;3.70;1.15;;;20.70;99.90;;;;;;4953225;29;20201;-79
2023/04/12 00:38:51;;;;;;;3.88;1.33;;;20.60;99.90;;;;;;4954182;28;20214;-79
2023/04/12 00:41:23;;;;;;;6.60;1.25;;;20.70;99.90;;;;;;4953547;29;20208;-79
2023/04/12 00:43:54;;;;;;;5.13;1.33;;;20.80;99.90;;;;;;4950713;29;20208;-78
2023/04/12 00:46:28;;;;;;;4.07;1.50;;;20.90;99.90;;;;;;4954454;28;20200;-79
2023/04/12 00:49:00;;;;;;;3.58;1.40;;;20.80;99.90;;;;;;4954010;29;20207;-81
2023/04/12 00:51:33;;;;;;;4.60;1.50;;;20.70;99.90;;;;;;4954099;28;20208;-80
2023/04/12 00:54:04;;;;;;;4.30;1.60;;;20.60;99.90;;;;;;4957656;29;20609;-78
2023/04/12 00:56:36;;;;;;;3.38;1.30;;;20.60;99.90;;;;;;4955917;28;20205;-77
2023/04/12 00:59:07;;;;;;;5.35;1.60;;;20.60;99.90;;;;;;4954914;28;20551;-80
2023/04/12 01:01:41;;;;;;;7.72;1.60;;;20.70;99.90;;;;;;4954182;28;20240;-81
2023/04/12 01:04:12;;;;;;;3.75;1.60;;;20.80;99.90;;;;;;4956893;29;20209;-78
2023/04/12 01:07:04;;;;;;;8.55;1.75;;;20.80;99.90;;;;;;4956072;28;20731;-78
2023/04/12 01:09:50;;;;;;;4.55;1.65;;;20.80;99.90;;;;;;4953132;28;20247;-78
2023/04/12 01:12:33;;;;;;;4.38;1.80;;;20.80;99.90;;;;;;4945892;29;20582;-78
2023/04/12 01:15:09;;;;;;;3.78;1.40;;;20.90;99.90;;;;;;4957417;28;20201;-78
2023/04/12 01:17:49;;;;;;;4.43;2.45;;;20.90;99.90;;;;;;4957527;28;20201;-77
2023/04/12 01:20:25;;;;;;;16.58;3.50;;;21.00;99.90;;;;;;4957530;29;20220;-79
2023/04/12 01:23:27;;;;;;;13.00;2.85;;;21.10;99.90;;;;;;4957227;29;20196;-79
2023/04/12 01:26:31;;;;;;;4.47;1.55;;;21.10;99.90;;;;;;4954713;29;20208;-79
2023/04/12 01:29:09;;;;;;;7.45;1.75;;;21.00;99.90;;;;;;4957420;28;20709;-77
2023/04/12 01:31:44;;;;;;;6.90;2.10;;;21.00;99.90;;;;;;4957610;28;20193;-78
2023/04/12 01:34:15;;;;;;;3.42;1.67;;;21.00;99.90;;;;;;4957290;28;20205;-77
2023/04/12 01:36:49;;;;;;;6.50;1.60;;;20.90;99.90;;;;;;4956907;29;20204;-78
2023/04/12 01:39:20;;;;;;;3.90;1.48;;;20.90;99.90;;;;;;4953330;28;20549;-79
2023/04/12 01:41:51;;;;;;;4.45;1.33;;;20.80;99.90;;;;;;4956898;29;20201;-79
2023/04/12 01:44:24;;;;;;;5.88;1.13;;;20.80;99.90;;;;;;4956902;29;20547;-79
2023/04/12 01:46:55;;;;;;;2.83;1.10;;;20.70;99.90;;;;;;4956995;28;20203;-78
2023/04/12 01:49:35;;;;;;;2.97;1.15;;;20.70;99.90;;;;;;4956867;29;20676;-78
2023/04/12 01:52:12;;;;;;;2.97;1.27;;;20.70;99.90;;;;;;4956714;28;20196;-79
2023/04/12 01:54:46;;;;;;;3.42;1.20;;;20.70;99.90;;;;;;4956740;29;20197;-78
2023/04/12 01:57:20;;;;;;;4.65;1.92;;;20.60;99.90;;;;;;4956831;29;20193;-78
2023/04/12 01:59:55;;;;;;;4.03;1.25;;;20.70;99.90;;;;;;4956526;29;20193;-79
2023/04/12 02:02:27;;;;;;;4.43;1.50;;;20.60;99.90;;;;;;4955940;28;20244;-77
2023/04/12 02:04:58;;;;;;;4.35;1.40;;;20.70;99.90;;;;;;4954950;29;20194;-78
2023/04/12 02:07:29;;;;;;;7.05;1.60;;;20.70;99.90;;;;;;4949537;28;20216;-78
2023/04/12 02:10:01;;;;;;;4.43;1.63;;;20.70;99.90;;;;;;4937656;29;20189;-77
2023/04/12 02:12:32;;;;;;;4.38;1.45;;;20.70;99.90;;;;;;4937297;29;20226;-77
2023/04/12 02:15:06;;;;;;;5.68;1.88;;;20.70;99.90;;;;;;4937115;29;20589;-76
2023/04/12 02:17:38;;;;;;;4.35;1.30;;;20.70;99.90;;;;;;4937205;29;20541;-78
2023/04/12 02:20:11;;;;;;;6.57;1.42;;;20.70;99.90;;;;;;4937115;29;20198;-78
2023/04/12 02:22:42;;;;;;;5.60;1.50;;;20.70;99.90;;;;;;4937223;29;20298;-77
2023/04/12 02:25:14;;;;;;;5.07;1.33;;;20.80;99.90;;;;;;4939714;29;20209;-79
2023/04/12 02:27:45;;;;;;;4.65;1.83;;;20.80;99.90;;;;;;4953877;29;20215;-79
2023/04/12 02:30:19;;;;;;;6.25;1.20;;;20.90;99.90;;;;;;4956227;29;20213;-76
2023/04/12 02:32:52;;;;;;;2.03;0.95;;;21.00;99.90;;;;;;4956003;29;20221;-80
2023/04/12 02:35:23;;;;;;;2.78;1.00;;;21.00;99.90;;;;;;4956179;29;20788;-78
2023/04/12 02:37:54;;;;;;;3.85;1.38;;;21.10;99.90;;;;;;4956132;29;20284;-78
2023/04/12 02:40:26;;;;;;;5.50;1.30;;;21.30;99.90;;;;;;4956053;29;20201;-78
2023/04/12 02:42:57;;;;;;;4.65;1.10;;;21.30;99.90;;;;;;4954261;28;20708;-76
2023/04/12 02:45:30;;;;;;;3.92;1.27;;;21.20;99.90;;;;;;4936672;29;20637;-78
2023/04/12 02:48:01;;;;;;;3.33;1.13;;;21.20;99.90;;;;;;4936998;29;20205;-78
2023/04/12 02:50:32;;;;;;;4.15;0.95;;;21.20;99.90;;;;;;4936401;29;20194;-80
2023/04/12 02:53:03;;;;;;;3.03;1.10;;;21.20;99.90;;;;;;4936475;29;20233;-79
2023/04/12 02:55:35;;;;;;;3.17;1.30;;;21.20;99.90;;;;;;4936469;29;20194;-78
2023/04/12 02:58:07;;;;;;;2.35;1.25;;;21.20;99.90;;;;;;4936694;29;20276;-77
2023/04/12 03:00:41;;;;;;;1.98;1.13;;;21.20;99.90;;;;;;4936893;29;20733;-78
2023/04/12 03:03:12;;;;;;;4.15;1.05;;;21.20;99.90;;;;;;4936122;29;20708;-77
2023/04/12 03:05:46;;;;;;;5.72;1.50;;;21.10;99.90;;;;;;4937360;29;20228;-77
2023/04/12 03:08:17;;;;;;;4.40;1.30;;;21.10;99.90;;;;;;4954897;29;20208;-77
2023/04/12 03:10:48;;;;;;;5.40;1.20;;;21.10;99.90;;;;;;4955388;29;20193;-77
2023/04/12 03:13:19;;;;;;;4.55;1.30;;;21.10;99.90;;;;;;4955130;29;20696;-79
2023/04/12 03:15:56;;;;;;;2.15;1.27;;;21.10;99.90;;;;;;4955276;28;20638;-77
2023/04/12 03:18:27;;;;;;;3.85;1.20;;;21.10;99.90;;;;;;4955231;28;20247;-78
2023/04/12 03:20:59;;;;;;;3.85;1.60;;;21.10;99.90;;;;;;4953228;28;20204;-77
2023/04/12 03:23:30;;;;;;;9.68;1.50;;;21.10;99.90;;;;;;4942725;29;20664;-78
2023/04/12 03:26:01;;;;;;;2.50;1.40;;;21.10;99.90;;;;;;4948152;29;20591;-79
2023/04/12 03:28:32;;;;;;;3.60;1.25;;;21.10;99.90;;;;;;4955207;29;20201;-77
2023/04/12 03:31:05;;;;;;;2.25;1.23;;;21.10;99.90;;;;;;4951859;29;20201;-79
2023/04/12 03:33:36;;;;;;;4.57;1.30;;;21.10;99.90;;;;;;4952750;29;20699;-77
2023/04/12 03:36:08;;;;;;;3.13;1.48;;;21.10;99.90;;;;;;4954041;28;20208;-76
2023/04/12 03:38:39;;;;;;;2.08;1.20;;;21.10;99.90;;;;;;4952384;29;20219;-75
2023/04/12 03:41:10;;;;;;;6.72;2.03;;;21.10;99.90;;;;;;4950467;29;20294;-78
2023/04/12 03:43:42;;;;;;;2.65;1.38;;;21.20;99.90;;;;;;4955171;28;20567;-78
2023/04/12 03:46:15;;;;;;;2.58;1.17;;;21.20;99.90;;;;;;4953413;28;20204;-78
2023/04/12 03:48:46;;;;;;;3.47;1.13;;;21.20;99.90;;;;;;4954665;29;20197;-79
2023/04/12 03:51:17;;;;;;;2.17;1.20;;;21.20;99.90;;;;;;4953040;29;20223;-78
2023/04/12 03:53:48;;;;;;;1.38;1.10;;;21.20;99.90;;;;;;4952776;28;20232;-78
2023/04/12 03:56:19;;;;;;;2.60;1.05;;;21.20;99.90;;;;;;4952443;29;20205;-78
2023/04/12 03:58:51;;;;;;;3.15;1.15;;;21.20;99.90;;;;;;4950664;28;20197;-81
2023/04/12 04:01:24;;;;;;;2.25;1.17;;;21.20;99.90;;;;;;4950691;29;20244;-78
2023/04/12 04:03:55;;;;;;;2.53;1.08;;;21.20;99.90;;;;;;4954223;29;20204;-79
2023/04/12 04:06:26;;;;;;;2.00;1.00;;;21.20;99.90;;;;;;4954582;29;20196;-79
2023/04/12 04:08:58;;;;;;;1.73;1.00;;;21.20;99.90;;;;;;4954463;29;20193;-78
2023/04/12 04:11:29;;;;;;;1.30;1.00;;;21.20;99.90;;;;;;4953935;28;20202;-78
2023/04/12 04:14:00;;;;;;;2.50;0.90;;;21.10;99.90;;;;;;4954476;29;20615;-79
2023/04/12 04:16:33;;;;;;;2.95;1.08;;;21.20;99.90;;;;;;4954534;29;20637;-79
2023/04/12 04:19:05;;;;;;;1.42;0.80;;;21.30;99.90;;;;;;4952141;28;20208;-78
2023/04/12 04:21:36;;;;;;;1.67;0.93;;;21.30;99.90;;;;;;4954501;28;20188;-78
2023/04/12 04:24:08;;;;;;;0.93;0.70;;;21.20;99.90;;;;;;4954699;28;20279;-79
2023/04/12 04:26:39;;;;;;;1.60;0.98;;;21.20;99.90;;;;;;4956166;28;20189;-78
2023/04/12 04:29:10;;;;;;;1.65;1.08;;;21.10;99.90;;;;;;4958444;28;20197;-78
2023/04/12 04:31:44;;;;;;;1.58;0.75;;;21.10;99.90;;;;;;4958167;28;20220;-78
2023/04/12 04:34:16;;;;;;;0.75;0.75;;;21.10;99.90;;;;;;4954420;29;20217;-79
2023/04/12 04:36:47;;;;;;;2.40;1.20;;;21.10;99.90;;;;;;4958196;29;20193;-78
2023/04/12 04:39:18;;;;;;;2.50;1.20;;;21.00;99.90;;;;;;4958233;29;20240;-79
2023/04/12 04:41:53;;;;;;;2.15;1.10;;;21.00;99.90;;;;;;4958303;28;20633;-81
2023/04/12 04:44:24;;;;;;;2.17;1.48;;;21.00;99.90;;;;;;4958211;28;20275;-78
2023/04/12 04:46:59;;;;;;;3.08;1.00;;;21.00;99.90;;;;;;4957932;29;20197;-78
2023/04/12 04:49:30;;;;;;;1.42;0.90;;;20.90;99.90;;;;;;4958089;28;20200;-78
2023/04/12 04:52:01;;;;;;;3.95;1.20;;;20.90;99.90;;;;;;4957826;29;20570;-78
2023/04/12 04:54:33;;;;;;;2.15;1.05;;;20.90;99.90;;;;;;4957737;29;20590;-80
2023/04/12 04:57:06;;;;;;;1.88;1.10;;;20.80;99.90;;;;;;4957972;28;20193;-79
2023/04/12 04:59:37;;;;;;;2.88;1.02;;;20.80;99.90;;;;;;4957999;29;20204;-78
2023/04/12 05:02:11;;;;;;;3.78;1.10;;;20.80;99.90;;;;;;4957656;28;20237;-78
2023/04/12 05:04:42;;;;;;;1.08;0.88;;;20.80;99.90;;;;;;4956183;28;20201;-79
2023/04/12 05:07:14;;;;;;;2.25;0.98;;;20.90;99.90;;;;;;4948786;29;20679;-78
2023/04/12 05:09:45;;;;;;;1.90;0.90;;;20.80;99.90;;;;;;4957639;29;20756;-79
2023/04/12 05:12:16;;;;;;;2.10;1.10;;;20.80;99.90;;;;;;4956664;28;20657;-80
2023/04/12 05:14:47;;;;;;;2.63;0.90;;;20.90;99.90;;;;;;4957281;28;20577;-79
2023/04/12 05:17:20;;;;;;;1.63;0.80;;;21.00;99.90;;;;;;4957287;29;20193;-78
2023/04/12 05:19:51;;;;;;;10.45;1.40;;;21.10;99.90;;;;;;4957646;29;20201;-81
2023/04/12 05:22:22;;;;;;;4.90;1.63;;;21.20;99.90;;;;;;4957624;29;20252;-79
2023/04/12 05:24:53;;;;;;;3.50;1.33;;;21.30;99.90;;;;;;4953933;29;20197;-81
2023/04/12 05:27:25;;;;;;;3.72;1.15;;;21.20;99.90;;;;;;4957249;29;20193;-80
2023/04/12 05:29:56;;;;;;;5.30;1.23;;;21.20;99.90;;;;;;4956931;29;20244;-79
2023/04/12 05:32:29;;;;;;;2.70;0.85;;;21.20;99.90;;;;;;4957448;29;20190;-79
2023/04/12 05:35:00;;;;;;;4.50;1.02;;;21.30;99.90;;;;;;4957220;28;20227;-81
2023/04/12 05:37:32;;;;;;;2.38;0.90;;;21.30;99.90;;;;;;4956259;28;20189;-80
2023/04/12 05:40:05;;;;;;;1.75;0.88;;;21.40;99.90;;;;;;4954623;28;20212;-79
2023/04/12 05:42:36;;;;;;;1.65;1.30;;;21.40;99.90;;;;;;4956082;29;20213;-78
2023/04/12 05:45:07;;;;;;;2.55;1.00;;;21.50;99.90;;;;;;4956760;29;20203;-80
2023/04/12 05:47:42;;;;;;;1.48;0.88;;;21.50;99.90;;;;;;4957051;28;20197;-79
2023/04/12 05:50:13;;;;;;;2.38;1.10;;;21.60;99.90;;;;;;4956513;29;20196;-78
2023/04/12 05:52:44;;;;;;;1.75;0.98;;;21.60;99.90;;;;;;4956738;29;20240;-78
2023/04/12 05:55:16;;;;;;;2.03;0.90;;;21.70;99.90;;;;;;4956917;29;20228;-81
2023/04/12 05:57:48;;;;;;;2.50;0.80;;;21.70;99.90;;;;;;4956569;28;20193;-81
2023/04/12 06:00:20;;;;;;;1.33;0.90;;;21.70;99.90;;;;;;4946415;28;20657;-80
2023/04/12 06:02:53;;;;;;;2.05;0.80;;;21.70;99.90;;;;;;4946188;29;20260;-83
2023/04/12 06:05:24;;;;;;;1.13;0.90;;;21.60;99.90;;;;;;4956704;29;20668;-79
2023/04/12 06:07:58;;;;;;;3.60;0.95;;;21.70;99.90;;;;;;4956615;29;20204;-81
2023/04/12 06:10:29;;;;;;;1.55;1.10;;;21.70;99.90;;;;;;4956623;28;20197;-81
2023/04/12 06:13:01;;;;;;;1.33;1.02;;;21.60;99.90;;;;;;4956377;28;20562;-80
2023/04/12 06:15:32;;;;;;;1.88;0.70;;;21.50;99.90;;;;;;4956339;28;20252;-83
2023/04/12 06:18:05;;;;;;;2.15;0.82;;;21.50;99.90;;;;;;4948668;29;20207;-80
2023/04/12 06:20:36;;;;;;;0.80;0.80;;;21.50;99.90;;;;;;4956370;29;20211;-80
2023/04/12 06:23:07;;;;;;;2.38;1.02;;;21.40;99.90;;;;;;4956422;29;20260;-78
2023/04/12 06:25:39;;;;;;;0.98;0.75;;;21.40;99.90;;;;;;4956389;28;20197;-77
2023/04/12 06:28:10;;;;;;;2.92;0.93;;;21.30;99.90;;;;;;4956482;28;20212;-76
2023/04/12 06:30:41;;;;;;;1.40;0.90;;;21.30;99.90;;;;;;4956132;28;20205;-77
2023/04/12 06:33:14;;;;;;;2.05;1.00;;;21.30;99.90;;;;;;4956870;28;20208;-79
2023/04/12 06:35:45;;;;;;;0.93;0.90;;;21.30;99.90;;;;;;4952535;29;20215;-78
2023/04/12 06:38:16;;;;;;;1.20;0.85;;;21.30;99.90;;;;;;4956017;28;20205;-76
2023/04/12 06:40:48;;;;;;;1.23;0.95;;;21.20;99.90;;;;;;4956439;28;20221;-76
2023/04/12 06:43:21;;;;;;;2.65;1.00;;;21.20;99.90;;;;;;4955930;28;20573;-78
2023/04/12 06:45:53;;;;;;;1.92;1.30;;;21.30;99.90;;;;;;4955807;29;20196;-76
2023/04/12 06:48:26;;;;;;;2.30;1.00;;;21.20;99.90;;;;;;4954853;28;20201;-78
2023/04/12 06:50:57;;;;;;;2.35;1.25;;;21.20;99.90;;;;;;4953811;29;20287;-80
2023/04/12 06:53:28;;;;;;;1.15;1.00;;;21.20;99.90;;;;;;4948869;28;20310;-78
2023/04/12 06:55:59;;;;;;;1.38;0.98;;;21.20;99.90;;;;;;4950466;29;20208;-77
2023/04/12 06:58:30;;;;;;;2.55;1.00;;;21.10;99.90;;;;;;4954799;28;20201;-78
2023/04/12 07:01:08;;;;;;;2.85;1.33;;;21.10;99.90;;;;;;4954354;29;20203;-79
2023/04/12 07:03:41;;;;;;;2.30;1.30;;;21.00;99.90;;;;;;4951943;29;20204;-79
2023/04/12 07:06:13;;;;;;;2.38;1.20;;;21.00;99.90;;;;;;4952260;29;20204;-78
2023/04/12 07:08:44;;;;;;;1.95;1.17;;;20.90;99.90;;;;;;4942876;29;20661;-78
2023/04/12 07:11:15;;;;;;;2.45;1.35;;;20.80;99.90;;;;;;4953061;29;20207;-79
2023/04/12 07:13:46;;;;;;;2.67;1.25;;;20.70;99.90;;;;;;4954834;28;20200;-77
2023/04/12 07:16:17;;;;;;;1.98;1.20;;;20.70;99.90;;;;;;4954214;28;20209;-77
2023/04/12 07:18:51;;;;;;;3.30;1.40;;;20.60;99.90;;;;;;4955396;28;20200;-80
2023/04/12 07:21:22;;;;;;;2.65;1.40;;;20.50;99.90;;;;;;4955382;29;20193;-77
2023/04/12 07:23:53;;;;;;;2.08;1.20;;;20.40;99.90;;;;;;4948004;28;20224;-78
2023/04/12 07:26:24;;;;;;;2.78;1.30;;;20.30;99.90;;;;;;4936086;29;20646;-78
2023/04/12 07:28:55;;;;;;;2.78;1.50;;;20.20;99.90;;;;;;4936348;29;20289;-81
2023/04/12 07:31:29;;;;;;;4.80;1.35;;;20.10;99.90;;;;;;4936461;29;20194;-77
2023/04/12 07:34:02;;;;;;;2.65;1.40;;;20.00;99.90;;;;;;4936153;29;20217;-78
2023/04/12 07:36:33;;;;;;;2.65;1.45;;;20.00;99.90;;;;;;4936198;29;20189;-78
2023/04/12 07:39:04;;;;;;;4.35;1.63;;;19.90;99.90;;;;;;4936211;29;20202;-82
2023/04/12 07:41:35;;;;;;;1.60;1.13;;;19.80;99.90;;;;;;4936158;29;20259;-80
2023/04/12 07:44:07;;;;;;;2.83;1.38;;;19.80;99.90;;;;;;4954564;29;20208;-78
2023/04/12 07:46:58;;;;;;;1.90;1.17;;;19.70;99.90;;;;;;4941243;29;20725;-78
2023/04/12 07:49:31;;;;;;;3.75;1.23;;;19.60;99.90;;;;;;4935720;29;20241;-79
2023/04/12 07:52:02;;;;;;;1.25;0.98;;;19.60;99.90;;;;;;4936097;29;20663;-80
2023/04/12 07:54:33;;;;;;;2.50;0.90;;;19.60;99.90;;;;;;4953740;28;20221;-82
2023/04/12 07:57:05;;;;;;;3.17;1.00;;;19.50;99.90;;;;;;4955186;28;20197;-79
2023/04/12 07:59:36;;;;;;;1.30;0.98;;;19.40;99.90;;;;;;4955135;28;20193;-80
2023/04/12 08:02:07;;;;;;;2.15;1.00;;;19.40;99.90;;;;;;4956836;28;20244;-79
2023/04/12 08:04:43;;;;;;;4.57;1.33;;;19.30;99.90;;;;;;4958745;29;20200;-77
2023/04/12 08:07:14;;;;;;;2.00;1.05;;;19.30;99.90;;;;;;4958843;29;20197;-80
2023/04/12 08:09:45;;;;;;;2.58;1.10;;;19.20;99.90;;;;;;4952365;29;20262;-79
2023/04/12 08:12:17;;;;;;;4.43;1.48;;;19.10;99.90;;;;;;4939957;29;20190;-79
2023/04/12 08:14:49;;;;;;;1.98;1.00;;;19.00;99.90;;;;;;4939697;29;20229;-77
2023/04/12 08:17:20;;;;;;;1.00;0.90;;;18.90;99.90;;;;;;4943300;29;20197;-79
2023/04/12 08:19:53;;;;;;;2.05;1.20;;;18.90;99.90;;;;;;4955368;29;20193;-79
2023/04/12 08:22:24;;;;;;;2.70;1.20;;;18.80;99.90;;;;;;4949277;29;20197;-78
2023/04/12 08:24:55;;;;;;;2.08;1.10;;;18.80;99.90;;;;;;4950884;28;20212;-79
2023/04/12 08:27:26;;;;;;;1.80;1.00;;;18.80;99.90;;;;;;4955502;28;20570;-78
2023/04/12 08:29:57;;;;;;;3.78;1.13;;;18.70;99.90;;;;;;4955639;28;20193;-78
2023/04/12 08:32:29;;;;;;;2.35;1.10;;;18.70;99.90;;;;;;4950032;29;20704;-80
2023/04/12 08:35:02;;;;;;;2.50;1.33;;;18.60;99.90;;;;;;4955945;28;20213;-77
2023/04/12 08:37:33;;;;;;;1.80;1.17;;;18.60;99.90;;;;;;4957979;28;20565;-78
2023/04/12 08:40:08;;;;;;;1.92;1.10;;;18.60;99.90;;;;;;4956330;28;20211;-78
2023/04/12 08:42:40;;;;;;;3.65;1.35;;;18.50;99.90;;;;;;4949557;29;20219;-77
2023/04/12 08:45:12;;;;;;;2.08;1.33;;;18.50;99.90;;;;;;4957276;29;20220;-78
2023/04/12 08:47:45;;;;;;;4.97;2.33;;;18.40;99.90;;;;;;4957133;28;20560;-77
2023/04/12 08:50:18;;;;;;;3.38;2.10;;;18.30;99.90;;;;;;4957640;28;20197;-78
2023/04/12 08:52:52;;;;;;;3.67;2.30;;;18.20;99.90;;;;;;4955462;28;20693;-79
2023/04/12 08:55:23;;;;;;;3.45;2.00;;;18.20;99.90;;;;;;4955983;28;20716;-78
2023/04/12 08:57:57;;;;;;;3.47;2.28;;;18.20;99.90;;;;;;4956311;28;20207;-79
2023/04/12 09:00:29;;;;;;;5.05;2.40;;;18.10;99.90;;;;;;4954677;29;20248;-78
2023/04/12 09:03:00;;;;;;;4.18;2.55;;;18.10;99.90;;;;;;4957205;28;20705;-77
2023/04/12 09:05:34;;;;;;;4.70;2.53;;;18.10;99.90;;;;;;4955949;28;20201;-79
2023/04/12 09:08:06;;;;;;;3.17;2.20;;;18.00;99.90;;;;;;4957050;29;20542;-78
2023/04/12 09:10:37;;;;;;;4.65;1.83;;;17.90;99.90;;;;;;4952579;28;20216;-79
2023/04/12 09:13:09;;;;;;;2.00;1.63;;;17.90;99.90;;;;;;4950234;28;20205;-79
2023/04/12 09:15:49;;;;;;;2.47;1.58;;;17.90;99.90;;;;;;4957276;28;20576;-78
2023/04/12 09:18:20;;;;;;;2.45;1.65;;;17.90;99.90;;;;;;4956855;28;20201;-77
2023/04/12 09:21:07;;;;;;;2.85;1.40;;;17.80;99.90;;;;;;4957480;28;20204;-77
2023/04/12 09:23:38;;;;;;;2.50;1.30;;;17.80;99.90;;;;;;4953281;29;20200;-77
2023/04/12 09:26:09;;;;;;;3.50;1.50;;;17.80;99.90;;;;;;4955945;28;20207;-79
2023/04/12 09:28:46;;;;;;;4.05;1.75;;;17.80;99.90;;;;;;4956756;29;20280;-78
2023/04/12 09:31:19;;;;;;;3.20;1.80;;;17.70;99.90;;;;;;4949394;28;20680;-80
2023/04/12 09:33:50;;;;;;;3.42;2.00;;;17.70;99.90;;;;;;4955247;29;20668;-78
2023/04/12 09:36:23;;;;;;;3.58;2.08;;;17.70;99.90;;;;;;4956570;29;20225;-78
2023/04/12 09:39:04;;;;;;;3.40;1.90;;;17.60;99.90;;;;;;4956599;29;20202;-79
2023/04/12 09:41:35;;;;;;;2.50;2.00;;;17.60;99.90;;;;;;4954693;28;20196;-78
2023/04/12 09:44:06;;;;;;;3.55;2.33;;;17.60;99.90;;;;;;4955037;29;20200;-77
2023/04/12 09:46:38;;;;;;;4.00;2.45;;;17.60;99.90;;;;;;4953816;28;20569;-77
2023/04/12 09:49:09;;;;;;;2.88;2.17;;;17.50;99.90;;;;;;4953249;28;20223;-80
2023/04/12 09:51:42;;;;;;;4.28;2.20;;;17.50;99.90;;;;;;4955145;28;20211;-80
2023/04/12 09:54:13;;;;;;;3.95;2.15;;;17.50;99.90;;;;;;4954087;28;20208;-80
2023/04/12 09:56:45;;;;;;;4.32;2.40;;;17.50;99.90;;;;;;4956146;29;20248;-80
2023/04/12 09:59:19;;;;;;;4.50;2.35;;;17.50;99.90;;;;;;4956160;28;20201;-79
2023/04/12 10:01:51;;;;;;;2.75;2.15;;;17.50;99.90;;;;;;4954174;28;20240;-79
2023/04/12 10:04:23;;;;;;;4.60;2.30;;;17.50;99.90;;;;;;4954646;29;20205;-77
2023/04/12 10:06:56;;;;;;;3.92;2.10;;;17.50;99.90;;;;;;4956551;28;20209;-78
2023/04/12 10:09:27;;;;;;;3.53;2.10;;;17.50;99.90;;;;;;4954711;28;20205;-78
2023/04/12 10:11:59;;;;;;;4.03;2.03;;;17.50;99.90;;;;;;4949255;28;20593;-77
2023/04/12 10:14:31;;;;;;;3.50;1.95;;;17.50;99.90;;;;;;4945356;29;20197;-77
2023/04/12 10:17:03;;;;;;;3.00;2.05;;;17.50;99.90;;;;;;4951440;29;20677;-78
2023/04/12 10:19:35;;;;;;;2.85;2.20;;;17.50;99.90;;;;;;4956325;29;20236;-77
2023/04/12 10:22:08;;;;;;;3.53;2.03;;;17.60;99.90;;;;;;4956166;29;20193;-77
2023/04/12 10:24:41;;;;;;;3.80;2.33;;;17.60;99.90;;;;;;4955717;28;20676;-78
2023/04/12 10:27:14;;;;;;;3.55;2.30;;;17.60;99.90;;;;;;4955768;29;20197;-78
2023/04/12 10:29:45;;;;;;;3.40;2.40;;;17.60;99.90;;;;;;4953401;29;20212;-78
2023/04/12 10:32:23;;;;;;;4.43;2.08;;;17.60;99.90;;;;;;4953011;28;20210;-76
2023/04/12 10:34:55;;;;;;;4.88;2.95;;;17.60;99.90;;;;;;4956282;28;20576;-77
2023/04/12 10:38:02;;;;;;;4.95;2.80;;;17.60;99.90;;;;;;4956073;29;20551;-77
2023/04/12 10:40:35;;;;;;;5.07;3.05;;;17.60;99.90;;;;;;4950436;29;20197;-77
2023/04/12 10:43:27;;;;;;;5.53;2.92;;;17.60;99.90;;;;;;4954658;29;20205;-77
2023/04/12 10:46:03;;;;;;;6.22;3.22;;;17.70;99.90;;;;;;4948973;29;20198;-77
2023/04/12 10:48:35;;;;;;;5.78;3.15;;;17.70;99.90;;;;;;4955585;28;20192;-77
2023/04/12 10:51:22;;;;;;;7.20;3.28;;;17.70;99.90;;;;;;4945940;28;20206;-77
2023/04/12 10:53:55;;;;;;;6.20;3.25;;;17.70;99.90;;;;;;4955471;29;20211;-78
2023/04/12 10:56:40;;;;;;;5.50;3.50;;;17.70;99.90;;;;;;4955759;29;20228;-78
2023/04/12 10:59:13;;;;;;;6.68;3.20;;;17.60;99.90;;;;;;4955378;29;20216;-78
2023/04/12 11:02:04;;;;;;;6.82;3.38;;;17.50;99.90;;;;;;4955520;29;20237;-78
2023/04/12 11:04:36;;;;;;;5.40;3.10;;;17.50;99.90;;;;;;4955353;28;20216;-78
2023/04/12 11:07:11;;;;;;;4.68;3.13;;;17.40;99.90;;;;;;4955001;29;20665;-78
2023/04/12 11:09:47;;;;;;;5.18;3.00;;;17.30;99.90;;;;;;4953960;28;20196;-77
2023/04/12 11:12:19;;;;;;;5.07;2.70;;;17.30;99.90;;;;;;4953676;28;20620;-77
2023/04/12 11:14:52;;;;;;;4.28;2.92;;;17.30;99.90;;;;;;4949766;28;20284;-78
2023/04/12 11:17:27;;;;;;;6.25;2.70;;;17.30;99.90;;;;;;4950033;29;20197;-78
2023/04/12 11:20:00;;;;;;;5.45;2.72;;;17.30;99.90;;;;;;4954571;29;20200;-77
2023/04/12 11:22:33;;;;;;;4.15;2.80;;;17.30;99.90;;;;;;4953002;28;20220;-78
2023/04/12 11:25:06;;;;;;;5.03;2.80;;;17.30;99.90;;;;;;4944877;28;20213;-77
2023/04/12 11:27:38;;;;;;;6.88;3.17;;;17.30;99.90;;;;;;4955550;28;20212;-78
2023/04/12 11:30:10;;;;;;;7.32;3.63;;;17.30;99.90;;;;;;4953910;28;20201;-78
2023/04/12 11:32:41;;;;;;;4.97;3.20;;;17.20;99.90;;;;;;4950981;28;20205;-78
2023/04/12 11:35:13;;;;;;;6.00;3.30;;;17.30;99.90;;;;;;4951304;28;20759;-78
2023/04/12 11:37:45;;;;;;;7.00;3.40;;;17.20;99.90;;;;;;4946105;28;20680;-77
2023/04/12 11:40:18;;;;;;;5.32;3.10;;;17.20;99.90;;;;;;4952173;28;20248;-78
2023/04/12 11:42:49;;;;;;;5.18;3.60;;;17.20;99.90;;;;;;4950355;28;20209;-79
2023/04/12 11:45:23;;;;;;;5.95;3.35;;;17.20;99.90;;;;;;4948071;29;20295;-77
2023/04/12 11:47:56;;;;;;;5.68;3.30;;;17.30;99.90;;;;;;4951940;29;20193;-77
2023/04/12 11:50:36;;;;;;;5.70;3.10;;;17.30;99.90;;;;;;4949755;28;20559;-78
2023/04/12 11:53:18;;;;;;;6.53;3.03;;;17.30;99.90;;;;;;4952078;29;20304;-78
2023/04/12 11:55:56;;;;;;;4.95;2.60;;;17.30;99.90;;;;;;4951076;28;20216;-77
2023/04/12 11:58:28;;;;;;;4.72;2.92;;;17.30;99.90;;;;;;4953253;28;20228;-78
2023/04/12 12:01:00;;;;;;;4.40;2.70;;;17.30;99.90;;;;;;4954545;29;20201;-77
2023/04/12 12:03:31;;;;;;;6.22;2.75;;;17.30;99.90;;;;;;4952427;29;20653;-77
2023/04/12 12:06:02;;;;;;;4.85;2.67;;;17.30;99.90;;;;;;4954142;28;20664;-77
2023/04/12 12:08:33;;;;;;;6.35;3.22;;;17.30;99.90;;;;;;4953329;28;20286;-77
2023/04/12 12:11:06;;;;;;;6.50;2.85;;;17.30;99.90;;;;;;4953264;29;20205;-77
2023/04/12 12:13:48;;;;;;;7.50;3.40;;;17.30;99.90;;;;;;4952391;29;20205;-77
2023/04/12 12:16:20;;;;;;;5.03;3.10;;;17.20;99.90;;;;;;4949946;28;20217;-77
2023/04/12 12:18:52;;;;;;;4.97;2.90;;;17.20;99.90;;;;;;4952551;29;20200;-77
2023/04/12 12:21:23;;;;;;;7.03;3.30;;;17.20;99.90;;;;;;4953163;28;20560;-78
2023/04/12 12:23:55;;;;;;;7.68;3.60;;;17.20;99.90;;;;;;4952437;29;20276;-77
2023/04/12 12:26:29;;;;;;;8.05;3.33;;;17.20;99.90;;;;;;4953186;28;20197;-77
2023/04/12 12:29:01;;;;;;;7.45;2.80;;;17.10;99.90;;;;;;4954816;29;20228;-77
2023/04/12 12:31:32;;;;;;;4.70;2.72;;;17.10;99.90;;;;;;4952335;28;20288;-76
2023/04/12 12:34:03;;;;;;;4.75;2.70;;;17.10;99.90;;;;;;4953673;29;20208;-77
2023/04/12 12:36:37;;;;;;;4.93;2.80;;;17.10;99.90;;;;;;4953562;29;20243;-77
2023/04/12 12:39:10;;;;;;;4.95;2.67;;;17.10;99.90;;;;;;4953738;28;20205;-77
2023/04/12 12:41:43;;;;;;;4.53;2.50;;;17.10;99.90;;;;;;4952443;28;20297;-77
2023/04/12 12:44:14;;;;;;;5.13;2.50;;;17.10;99.90;;;;;;4953242;29;20197;-77
2023/04/12 12:46:48;;;;;;;3.70;2.20;;;17.10;99.90;;;;;;4950552;28;20571;-77
2023/04/12 12:49:19;;;;;;;2.95;2.05;;;17.10;99.90;;;;;;4956857;29;20211;-77
2023/04/12 12:51:52;;;;;;;5.55;2.35;;;17.10;99.90;;;;;;4956299;29;20229;-77
2023/04/12 12:54:23;;;;;;;4.28;2.50;;;17.10;99.90;;;;;;4955721;29;20197;-78
2023/04/12 12:56:56;;;;;;;3.45;1.83;;;17.10;99.90;;;;;;4956651;29;20224;-77
2023/04/12 12:59:27;;;;;;;3.45;2.10;;;17.10;99.90;;;;;;4956537;29;20193;-77
2023/04/12 13:01:58;;;;;;;3.20;1.95;;;17.10;99.90;;;;;;4957135;29;20233;-77
2023/04/12 13:04:29;;;;;;;4.30;2.20;;;17.10;99.90;;;;;;4956138;29;20220;-77
2023/04/12 13:07:00;;;;;;;3.97;2.05;;;17.20;99.90;;;;;;4956158;29;20205;-77
2023/04/12 13:09:33;;;;;;;3.75;2.15;;;17.10;99.90;;;;;;4956674;28;20227;-77
2023/04/12 13:12:06;;;;;;;3.47;2.00;;;17.10;99.90;;;;;;4956333;28;20208;-77
2023/04/12 13:14:37;;;;;;;3.50;1.98;;;17.10;99.90;;;;;;4956886;28;20208;-77